Time;durP1;ratioP1;P1;durP2;ratioP2;P2;SDS_P1;SDS_P2;PMS_P1;PMS_P2;Temp;Humidity;BMP_temperature;BMP_pressure;BME280_temperature;BME280_humidity;BME280_pressure;Samples;Min_cycle;Max_cycle;Signal;HPM_P1;HPM_P2
2022/10/21 00:00:17;;;;;;;22.37;11.48;;;;;;;4.76;73.45;99740.14;1767678;80;21386;-43
2022/10/21 00:02:45;;;;;;;21.02;11.00;;;;;;;4.77;73.62;99731.90;1776147;80;21029;-42
2022/10/21 00:05:12;;;;;;;22.32;10.38;;;;;;;4.76;73.40;99729.72;1771866;80;21492;-41
2022/10/21 00:07:39;;;;;;;;;;;;;;;4.72;73.72;99733.75;1783400;80;21015;-42
2022/10/21 00:10:07;;;;;;;18.50;10.70;;;;;;;4.66;73.98;99730.85;1767067;80;20125;-40
2022/10/21 00:12:35;;;;;;;23.80;11.30;;;;;;;4.65;74.00;99727.82;1772949;80;21057;-40
2022/10/21 00:15:05;;;;;;;21.42;11.05;;;;;;;4.67;73.81;99719.52;1766437;80;21010;-41
2022/10/21 00:17:35;;;;;;;26.35;12.37;;;;;;;4.67;73.99;99718.22;1768737;80;21503;-41
2022/10/21 00:20:06;;;;;;;18.15;10.65;;;;;;;4.65;74.00;99716.10;1772159;80;21003;-42
2022/10/21 00:22:33;;;;;;;21.12;11.33;;;;;;;4.66;74.36;99719.55;1766901;80;21006;-43
2022/10/21 00:25:00;;;;;;;19.40;10.70;;;;;;;4.63;74.07;99724.86;1765980;80;20983;-45
2022/10/21 00:27:27;;;;;;;20.00;11.20;;;;;;;4.60;74.36;99716.66;1761629;80;21015;-44
2022/10/21 00:29:54;;;;;;;24.07;11.40;;;;;;;4.58;74.01;99702.39;1774626;80;21073;-42
2022/10/21 00:32:21;;;;;;;19.12;11.18;;;;;;;4.58;74.01;99702.39;1769159;80;21564;-43
2022/10/21 00:34:47;;;;;;;24.07;10.32;;;;;;;4.63;74.12;99703.56;1773778;79;21089;-39
2022/10/21 00:37:16;;;;;;;20.27;10.85;;;;;;;4.61;74.39;99682.75;1770460;80;21023;-43
2022/10/21 00:39:43;;;;;;;18.70;11.22;;;;;;;4.59;74.39;99683.24;1767556;80;21014;-41
2022/10/21 00:42:17;;;;;;;21.20;11.63;;;;;;;4.61;74.22;99676.25;1769457;80;21433;-42
2022/10/21 00:45:07;;;;;;;22.75;11.33;;;;;;;4.58;74.66;99671.13;1771875;80;21014;-39
2022/10/21 00:47:43;;;;;;;19.35;10.32;;;;;;;4.59;74.27;99662.41;1767492;81;21006;-42
2022/10/21 00:50:23;;;;;;;20.35;11.18;;;;;;;4.57;74.40;99662.05;1774735;80;20986;-41
2022/10/21 00:52:50;;;;;;;18.23;10.40;;;;;;;4.52;74.30;99673.87;1760698;80;21563;-41
2022/10/21 00:55:17;;;;;;;15.68;9.83;;;;;;;4.56;74.40;99663.77;1777626;80;21013;-39
2022/10/21 00:57:44;;;;;;;25.92;11.08;;;;;;;4.54;74.47;99655.60;1779881;80;21046;-43
2022/10/21 01:00:12;;;;;;;17.30;10.38;;;;;;;4.53;74.47;99645.64;1769899;81;20990;-42
2022/10/21 01:02:39;;;;;;;19.45;10.85;;;;;;;4.61;73.99;99644.14;1776086;79;21574;-43
2022/10/21 01:05:08;;;;;;;18.50;10.87;;;;;;;4.57;74.49;99651.17;1771711;80;21021;-42
2022/10/21 01:07:35;;;;;;;18.40;10.63;;;;;;;4.54;74.53;99642.13;1781619;80;20981;-42
2022/10/21 01:10:02;;;;;;;19.43;11.10;;;;;;;4.55;74.54;99643.85;1777809;80;21025;-41
2022/10/21 01:12:49;;;;;;;24.23;11.18;;;;;;;4.50;74.66;99644.41;1773597;80;21175;-41
2022/10/21 01:15:46;;;;;;;19.75;10.65;;;;;;;4.46;74.76;99646.69;1774263;80;21575;-40
2022/10/21 01:18:21;;;;;;;22.32;11.45;;;;;;;4.39;75.26;99643.36;1770504;80;20974;-42
2022/10/21 01:21:23;;;;;;;21.25;11.40;;;;;;;4.45;74.96;99652.77;1769301;81;20995;-43
2022/10/21 01:24:18;;;;;;;20.62;10.85;;;;;;;4.43;75.47;99650.66;1779024;79;20993;-45
2022/10/21 01:27:14;;;;;;;19.50;10.80;;;;;;;4.45;75.13;99643.66;1778507;79;21518;-43
2022/10/21 01:30:08;;;;;;;25.10;12.10;;;;;;;4.45;75.00;99646.27;1771054;80;21021;-42
2022/10/21 01:32:46;;;;;;;20.55;11.38;;;;;;;4.39;75.25;99641.22;1772659;79;21741;-43
2022/10/21 01:35:29;;;;;;;22.42;11.30;;;;;;;4.43;75.45;99640.23;1773999;80;21034;-42
2022/10/21 01:38:20;;;;;;;18.20;11.10;;;;;;;4.39;75.21;99633.41;1771836;80;21107;-42
2022/10/21 01:41:10;;;;;;;16.07;10.75;;;;;;;4.40;75.45;99637.28;1772879;80;21483;-42
2022/10/21 01:44:00;;;;;;;20.30;10.82;;;;;;;4.37;75.41;99632.59;1776934;80;21074;-42
2022/10/21 01:46:38;;;;;;;22.85;11.15;;;;;;;4.41;75.36;99636.83;1769307;80;20998;-41
2022/10/21 01:49:11;;;;;;;25.97;11.80;;;;;;;4.40;75.62;99636.41;1768783;81;21131;-43
2022/10/21 01:51:39;;;;;;;18.17;11.03;;;;;;;4.33;75.88;99633.53;1767749;79;20998;-42
2022/10/21 01:54:11;;;;;;;18.23;11.15;;;;;;;4.35;75.70;99624.81;1774452;80;21014;-39
2022/10/21 01:56:41;;;;;;;18.02;11.73;;;;;;;4.33;75.79;99616.19;1759990;80;21508;-43
2022/10/21 01:59:10;;;;;;;18.30;11.45;;;;;;;4.32;75.72;99611.86;1776658;79;21023;-44
2022/10/21 02:01:38;;;;;;;18.55;11.40;;;;;;;4.32;75.48;99607.11;1774572;79;21028;-42
2022/10/21 02:04:09;;;;;;;22.20;11.30;;;;;;;4.32;75.60;99595.39;1755604;80;21007;-39
2022/10/21 02:06:35;;;;;;;20.68;11.33;;;;;;;4.32;75.42;99591.48;1759763;80;21544;-41
2022/10/21 02:09:02;;;;;;;25.88;11.48;;;;;;;4.29;75.59;99596.76;1764838;79;21012;-44
2022/10/21 02:11:33;;;;;;;17.85;11.15;;;;;;;4.31;75.89;99594.55;1761795;79;21529;-45
2022/10/21 02:14:05;;;;;;;17.65;10.98;;;;;;;4.33;75.58;99589.27;1777197;80;21011;-43
2022/10/21 02:16:36;;;;;;;16.65;10.40;;;;;;;4.33;75.47;99586.67;1763473;80;21024;-42
2022/10/21 02:19:13;;;;;;;18.98;11.18;;;;;;;4.25;75.68;99584.27;1761167;79;20995;-43
2022/10/21 02:21:41;;;;;;;22.85;10.88;;;;;;;4.28;75.32;99584.66;1760845;80;21220;-42
2022/10/21 02:24:31;;;;;;;22.10;11.57;;;;;;;4.23;75.50;99579.09;1763537;79;21530;-43
2022/10/21 02:26:58;;;;;;;18.00;10.43;;;;;;;4.25;75.39;99573.85;1760573;79;21027;-43
2022/10/21 02:29:30;;;;;;;24.15;11.28;;;;;;;4.20;75.33;99571.38;1743355;79;21041;-41
2022/10/21 02:32:12;;;;;;;20.45;11.65;;;;;;;4.23;75.23;99567.83;1752837;80;21551;-42
2022/10/21 02:35:00;;;;;;;20.68;10.70;;;;;;;4.18;75.74;99557.55;1754414;80;21582;-42
2022/10/21 02:37:39;;;;;;;20.12;10.60;;;;;;;4.12;75.57;99565.49;1753521;80;21064;-39
2022/10/21 02:43:25;;;;;;;19.82;10.28;;;;;;;4.14;75.76;99574.57;1709168;81;21155;-44
2022/10/21 02:45:59;;;;;;;18.92;10.98;;;;;;;4.13;75.86;99575.45;1662852;84;21213;-43
2022/10/21 02:48:26;;;;;;;19.55;11.30;;;;;;;4.03;76.25;99565.72;1670316;84;21675;-43
2022/10/21 02:50:52;;;;;;;18.50;10.18;;;;;;;4.07;76.02;99570.41;1665341;85;21037;-44
2022/10/21 02:53:19;;;;;;;18.03;10.60;;;;;;;4.08;75.67;99573.43;1731528;82;21006;-43
2022/10/21 02:55:46;;;;;;;24.17;11.50;;;;;;;4.04;76.04;99564.39;1740279;80;21523;-43
2022/10/21 02:58:13;;;;;;;22.43;10.63;;;;;;;4.01;76.19;99558.40;1711139;82;21054;-44
2022/10/21 03:00:40;;;;;;;18.33;10.73;;;;;;;4.01;76.29;99555.80;1720243;82;21046;-43
2022/10/21 03:03:06;;;;;;;18.77;10.20;;;;;;;4.01;76.41;99541.03;1734099;82;20983;-42
2022/10/21 03:05:33;;;;;;;23.20;11.33;;;;;;;3.90;76.39;99546.95;1719131;82;21058;-41
2022/10/21 03:08:00;;;;;;;21.00;10.80;;;;;;;3.98;76.38;99541.55;1722493;82;21031;-43
2022/10/21 03:10:27;;;;;;;24.43;10.50;;;;;;;3.96;76.46;99536.37;1726797;82;21061;-42
2022/10/21 03:12:53;;;;;;;24.70;11.33;;;;;;;3.96;76.45;99540.73;1727172;81;20991;-43
2022/10/21 03:15:20;;;;;;;17.20;10.53;;;;;;;3.93;76.57;99545.58;1727980;82;21013;-41
2022/10/21 03:17:47;;;;;;;17.00;10.90;;;;;;;3.94;76.38;99541.22;1730256;81;21051;-41
2022/10/21 03:20:14;;;;;;;17.55;10.13;;;;;;;3.96;76.31;99539.44;1734145;82;21006;-46
2022/10/21 03:22:42;;;;;;;18.77;11.33;;;;;;;3.97;76.13;99526.84;1725299;82;21022;-42
2022/10/21 03:25:10;;;;;;;24.98;11.35;;;;;;;3.98;76.04;99522.03;1730854;82;21062;-40
2022/10/21 03:27:38;;;;;;;16.97;10.48;;;;;;;3.93;76.46;99526.48;1725407;81;21526;-41
2022/10/21 03:30:05;;;;;;;;;;;;;;;3.91;76.47;99512.25;1733949;82;21015;-44
2022/10/21 03:32:33;;;;;;;18.50;10.40;;;;;;;3.88;76.56;99511.01;1735761;82;20199;-41
2022/10/21 03:34:59;;;;;;;16.32;10.45;;;;;;;3.88;76.50;99513.61;1730270;80;21050;-43
2022/10/21 03:37:26;;;;;;;21.10;10.83;;;;;;;3.88;76.45;99508.86;1732470;82;21140;-41
2022/10/21 03:39:53;;;;;;;21.10;10.67;;;;;;;3.87;76.74;99505.38;1731314;80;21555;-42
2022/10/21 03:42:19;;;;;;;18.63;10.13;;;;;;;3.88;76.76;99495.40;1724286;82;21025;-41
2022/10/21 03:44:46;;;;;;;18.67;10.63;;;;;;;3.84;76.64;99495.92;1729006;82;21007;-41
2022/10/21 03:47:13;;;;;;;18.02;10.68;;;;;;;3.85;76.93;99495.47;1721004;83;20983;-44
2022/10/21 03:49:40;;;;;;;20.20;10.23;;;;;;;3.88;76.72;99494.55;1733523;81;21022;-40
2022/10/21 03:52:06;;;;;;;16.17;9.90;;;;;;;3.88;76.91;99482.39;1730171;82;21492;-43
2022/10/21 03:54:33;;;;;;;18.27;10.50;;;;;;;3.85;77.11;99486.36;1740039;81;21002;-40
2022/10/21 03:57:00;;;;;;;16.27;10.00;;;;;;;3.90;76.72;99489.70;1740058;82;21029;-43
2022/10/21 03:59:27;;;;;;;21.48;10.88;;;;;;;3.96;76.59;99490.00;1726487;81;21025;-43
2022/10/21 04:01:54;;;;;;;23.15;10.63;;;;;;;3.93;76.55;99492.24;1734026;81;21449;-43
2022/10/21 04:04:21;;;;;;;18.75;10.38;;;;;;;3.96;76.86;99483.49;1726985;81;21478;-43
2022/10/21 04:06:48;;;;;;;20.40;10.40;;;;;;;3.98;76.78;99493.41;1731807;81;21453;-44
2022/10/21 04:09:15;;;;;;;18.73;9.95;;;;;;;3.98;76.78;99493.41;1738353;82;21731;-52
2022/10/21 04:11:41;;;;;;;20.83;11.47;;;;;;;3.99;76.40;99495.13;1720670;82;21006;-43
2022/10/21 04:14:08;;;;;;;21.13;12.00;;;;;;;3.99;76.35;99484.73;1730461;82;21058;-46
2022/10/21 04:16:35;;;;;;;23.15;11.12;;;;;;;3.99;76.12;99482.97;1738484;81;21022;-43
2022/10/21 04:19:02;;;;;;;25.65;11.48;;;;;;;3.97;76.19;99482.61;1729782;81;21515;-43
2022/10/21 04:21:28;;;;;;;19.53;10.77;;;;;;;3.97;76.52;99477.41;1726325;81;21014;-43
2022/10/21 04:23:55;;;;;;;22.80;11.40;;;;;;;3.96;76.63;99484.80;1720635;81;21461;-41
2022/10/21 04:26:22;;;;;;;19.92;10.80;;;;;;;3.96;76.50;99483.49;1730812;81;21009;-42
2022/10/21 04:28:48;;;;;;;20.63;11.17;;;;;;;3.95;76.71;99476.59;1730614;81;21022;-42
2022/10/21 04:31:15;;;;;;;18.93;10.70;;;;;;;3.95;76.27;99471.39;1736151;82;21025;-41
2022/10/21 04:33:42;;;;;;;24.87;11.30;;;;;;;3.94;76.38;99465.31;1727604;81;21022;-42
2022/10/21 04:36:09;;;;;;;23.43;12.03;;;;;;;3.95;76.22;99463.59;1738582;81;21495;-42
2022/10/21 04:38:35;;;;;;;19.77;10.33;;;;;;;3.93;76.38;99461.44;1739971;81;22016;-43
2022/10/21 04:41:03;;;;;;;22.53;11.37;;;;;;;3.85;76.83;99455.98;1730985;81;20978;-41
2022/10/21 04:43:30;;;;;;;20.72;11.05;;;;;;;3.85;76.58;99453.38;1734637;81;21558;-43
2022/10/21 04:45:57;;;;;;;21.57;11.45;;;;;;;3.83;76.92;99451.27;1737119;82;21042;-43
2022/10/21 04:48:23;;;;;;;22.97;10.97;;;;;;;3.84;76.60;99448.25;1722841;81;21550;-44
2022/10/21 04:50:52;;;;;;;25.02;12.13;;;;;;;3.78;76.93;99440.16;1730765;81;21015;-43
2022/10/21 04:53:20;;;;;;;31.17;11.57;;;;;;;3.73;77.25;99443.31;1733237;82;21587;-42
2022/10/21 04:55:52;;;;;;;23.05;11.90;;;;;;;3.72;76.95;99445.48;1746076;81;21123;-41
2022/10/21 04:58:20;;;;;;;22.70;10.80;;;;;;;3.72;77.25;99449.39;1725087;82;20991;-43
2022/10/21 05:00:49;;;;;;;22.30;11.40;;;;;;;3.74;76.96;99443.70;1727334;81;21709;-43
2022/10/21 05:03:17;;;;;;;17.25;11.05;;;;;;;3.69;77.40;99444.26;1724947;82;21058;-43
2022/10/21 05:05:44;;;;;;;19.90;11.33;;;;;;;3.74;76.88;99449.36;1723694;81;21079;-43
2022/10/21 05:08:10;;;;;;;20.77;11.30;;;;;;;3.69;77.15;99448.16;1731318;81;21515;-43
2022/10/21 05:10:37;;;;;;;24.43;12.00;;;;;;;3.71;77.34;99444.22;1730314;82;21025;-41
2022/10/21 05:13:04;;;;;;;22.05;11.95;;;;;;;3.72;77.75;99442.89;1737776;82;21377;-42
2022/10/21 05:15:32;;;;;;;21.55;11.40;;;;;;;3.73;77.91;99435.93;1725466;81;21069;-44
2022/10/21 05:17:59;;;;;;;21.50;11.80;;;;;;;3.73;77.52;99427.70;1730857;82;21013;-43
2022/10/21 05:20:25;;;;;;;21.50;10.97;;;;;;;3.71;77.64;99424.30;1732953;82;21504;-41
2022/10/21 05:22:52;;;;;;;27.65;12.80;;;;;;;3.75;77.46;99429.82;1729525;81;21050;-42
2022/10/21 05:25:20;;;;;;;24.90;11.47;;;;;;;3.73;77.44;99426.41;1737891;81;21023;-41
2022/10/21 05:27:46;;;;;;;19.90;11.48;;;;;;;3.67;77.38;99411.39;1741635;82;21713;-43
2022/10/21 05:30:14;;;;;;;27.00;11.47;;;;;;;3.70;78.35;99415.23;1731912;81;21030;-43
2022/10/21 05:32:41;;;;;;;19.92;11.10;;;;;;;3.71;77.98;99413.02;1718401;81;21050;-41
2022/10/21 05:35:08;;;;;;;21.45;11.50;;;;;;;3.69;78.21;99416.95;1730051;81;21033;-45
2022/10/21 05:37:34;;;;;;;22.22;11.65;;;;;;;3.70;78.21;99414.77;1734319;82;21018;-43
2022/10/21 05:40:03;;;;;;;26.37;12.47;;;;;;;3.74;77.93;99420.30;1724518;82;21014;-42
2022/10/21 05:42:29;;;;;;;24.67;11.83;;;;;;;3.80;77.82;99421.88;1736213;82;21065;-41
2022/10/21 05:44:56;;;;;;;29.97;13.87;;;;;;;3.81;77.75;99412.74;1730939;81;21109;-43
2022/10/21 05:47:23;;;;;;;29.73;14.83;;;;;;;3.85;77.74;99414.81;1720384;82;21452;-43
2022/10/21 05:49:50;;;;;;;26.77;12.63;;;;;;;3.91;77.69;99425.51;1734535;81;21031;-41
2022/10/21 05:52:16;;;;;;;24.20;11.80;;;;;;;3.95;77.77;99419.36;1725186;81;21062;-43
2022/10/21 05:54:43;;;;;;;20.47;10.67;;;;;;;3.95;77.89;99414.16;1724213;82;21026;-42
2022/10/21 05:57:10;;;;;;;22.40;12.20;;;;;;;3.95;78.04;99412.39;1718637;82;20982;-42
2022/10/21 05:59:36;;;;;;;24.73;13.13;;;;;;;4.00;77.64;99413.55;1730096;81;21492;-42
2022/10/21 06:02:03;;;;;;;19.33;11.77;;;;;;;4.02;78.05;99416.55;1735409;81;21010;-41
2022/10/21 06:04:30;;;;;;;26.07;12.17;;;;;;;3.99;77.83;99410.56;1729782;82;21520;-44
2022/10/21 06:06:57;;;;;;;26.83;12.20;;;;;;;4.07;77.77;99412.95;1730634;81;21276;-43
2022/10/21 06:09:24;;;;;;;21.57;12.80;;;;;;;4.14;77.66;99420.55;1738164;81;21078;-43
2022/10/21 06:11:50;;;;;;;28.32;12.70;;;;;;;4.19;77.44;99412.17;1739612;82;21017;-43
2022/10/21 06:14:18;;;;;;;26.70;12.58;;;;;;;4.26;77.56;99414.17;1719061;83;21456;-42
2022/10/21 06:16:45;;;;;;;29.18;12.75;;;;;;;4.28;77.33;99411.08;1727665;81;21013;-42
2022/10/21 06:19:12;;;;;;;30.50;12.53;;;;;;;4.31;77.66;99414.03;1727667;81;21463;-41
2022/10/21 06:21:38;;;;;;;20.47;11.73;;;;;;;4.36;77.23;99411.70;1731502;81;21041;-42
2022/10/21 06:24:05;;;;;;;29.97;13.50;;;;;;;4.46;77.13;99414.04;1733202;82;21006;-40
2022/10/21 06:26:32;;;;;;;30.70;12.10;;;;;;;4.53;77.04;99413.84;1732854;81;21003;-41
2022/10/21 06:28:59;;;;;;;23.02;11.95;;;;;;;4.57;77.07;99419.37;1724360;82;21042;-41
2022/10/21 06:31:25;;;;;;;20.87;11.77;;;;;;;4.60;76.86;99421.02;1732960;81;21507;-40
2022/10/21 06:33:52;;;;;;;23.13;12.67;;;;;;;4.61;76.94;99410.55;1732059;81;21057;-40
2022/10/21 06:36:19;;;;;;;21.33;12.43;;;;;;;4.67;76.83;99400.86;1710520;80;21015;-38
2022/10/21 06:38:45;;;;;;;26.23;12.87;;;;;;;4.74;76.76;99401.09;1698699;83;21128;-39
2022/10/21 06:41:14;;;;;;;29.27;13.13;;;;;;;4.81;76.55;99403.92;1694521;83;21018;-38
2022/10/21 06:43:41;;;;;;;25.65;12.47;;;;;;;4.84;76.24;99393.41;1701202;81;21030;-39
2022/10/21 06:46:11;;;;;;;22.90;12.05;;;;;;;4.87;76.49;99389.39;1722294;81;21074;-39
2022/10/21 06:48:38;;;;;;;34.73;12.95;;;;;;;4.94;76.46;99380.48;1727855;81;21098;-37
2022/10/21 06:51:11;;;;;;;24.63;12.90;;;;;;;5.03;76.50;99375.44;1703330;81;21118;-38
2022/10/21 06:53:37;;;;;;;26.37;12.33;;;;;;;5.10;76.16;99370.90;1697385;81;21018;-41
2022/10/21 06:56:09;;;;;;;22.97;12.93;;;;;;;5.16;75.80;99368.92;1711578;81;21071;-42
2022/10/21 06:58:41;;;;;;;27.05;12.60;;;;;;;5.19;76.07;99366.69;1715038;82;21027;-42
2022/10/21 07:01:14;;;;;;;23.47;13.68;;;;;;;5.22;75.83;99366.61;1714127;81;21011;-40
2022/10/21 07:03:41;;;;;;;24.07;12.80;;;;;;;5.28;76.15;99365.09;1712592;81;21039;-42
2022/10/21 07:06:08;;;;;;;22.30;12.30;;;;;;;5.31;76.03;99360.22;1710875;82;21050;-41
2022/10/21 07:08:36;;;;;;;23.75;12.20;;;;;;;5.34;75.92;99358.82;1716646;81;21006;-41
2022/10/21 07:11:03;;;;;;;23.57;13.55;;;;;;;5.36;75.78;99360.92;1717782;81;21513;-40
2022/10/21 07:13:31;;;;;;;28.57;13.15;;;;;;;5.35;75.61;99364.45;1712419;83;21046;-39
2022/10/21 07:16:23;;;;;;;22.17;12.28;;;;;;;5.39;75.81;99367.35;1723091;81;20995;-42
2022/10/21 07:18:50;;;;;;;31.85;14.30;;;;;;;5.46;75.70;99354.97;1710627;81;21137;-44
2022/10/21 07:21:20;;;;;;;27.45;14.15;;;;;;;5.52;75.57;99357.36;1715523;81;21100;-41
2022/10/21 07:23:53;;;;;;;35.08;13.88;;;;;;;5.58;75.84;99355.84;1715558;81;21499;-44
2022/10/21 07:26:21;;;;;;;30.50;13.10;;;;;;;5.62;75.62;99353.55;1715650;81;21051;-41
2022/10/21 07:28:48;;;;;;;25.27;12.93;;;;;;;5.70;75.31;99350.67;1709058;81;21020;-44
2022/10/21 07:31:18;;;;;;;26.37;12.88;;;;;;;5.77;75.44;99349.55;1710512;82;21555;-44
2022/10/21 07:33:45;;;;;;;27.42;13.05;;;;;;;5.86;75.10;99349.23;1703982;82;21036;-43
2022/10/21 07:36:18;;;;;;;29.15;13.25;;;;;;;5.96;75.53;99349.78;1713316;83;21047;-41
2022/10/21 07:38:47;;;;;;;44.33;14.30;;;;;;;6.06;74.75;99351.17;1717826;83;21516;-43
2022/10/21 07:41:24;;;;;;;34.50;13.68;;;;;;;6.14;74.54;99345.20;1719020;82;21019;-41
2022/10/21 07:43:51;;;;;;;31.68;14.33;;;;;;;6.23;74.11;99334.03;1701433;83;20999;-44
2022/10/21 07:46:19;;;;;;;;;;;;;;;6.29;74.07;99333.80;1717120;83;21132;-42
2022/10/21 07:48:47;;;;;;;37.48;14.55;;;;;;;6.30;73.54;99334.20;1716925;83;20121;-43
2022/10/21 07:51:18;;;;;;;27.67;13.22;;;;;;;6.30;73.60;99325.91;1717240;82;21011;-42
2022/10/21 07:53:48;;;;;;;32.38;14.45;;;;;;;6.33;73.61;99315.79;1724100;83;21070;-43
2022/10/21 07:56:26;;;;;;;41.45;14.90;;;;;;;6.29;73.41;99311.59;1715409;82;21541;-42
2022/10/21 07:58:53;;;;;;;35.63;14.45;;;;;;;6.42;73.48;99315.47;1696504;83;21110;-43
2022/10/21 08:01:21;;;;;;;33.00;16.37;;;;;;;6.49;73.67;99307.80;1715012;82;21051;-43
2022/10/21 08:03:48;;;;;;;29.50;17.50;;;;;;;6.57;73.44;99302.27;1701493;83;21567;-41
2022/10/21 08:06:16;;;;;;;33.15;16.00;;;;;;;6.64;73.49;99301.13;1700800;83;21064;-47
2022/10/21 08:08:44;;;;;;;32.30;15.10;;;;;;;6.72;73.47;99295.59;1703999;83;21026;-41
2022/10/21 08:11:20;;;;;;;46.35;17.73;;;;;;;6.74;73.01;99295.06;1709357;83;21854;-47
2022/10/21 08:13:47;;;;;;;31.77;16.90;;;;;;;6.81;73.13;99283.46;1709115;83;21036;-43
2022/10/21 08:16:14;;;;;;;;;;;;;;;6.80;73.09;99284.83;1719367;83;21026;-45
2022/10/21 08:18:41;;;;;;;31.07;17.10;;;;;;;6.75;73.12;99280.23;1707071;83;20108;-44
2022/10/21 08:21:08;;;;;;;31.77;17.23;;;;;;;6.84;73.03;99283.78;1714879;82;21065;-43
2022/10/21 08:23:35;;;;;;;31.53;15.63;;;;;;;6.94;73.23;99281.67;1711076;82;21026;-43
2022/10/21 08:26:03;;;;;;;35.17;16.75;;;;;;;6.97;73.25;99278.47;1721203;82;21074;-42
2022/10/21 08:28:30;;;;;;;39.20;19.17;;;;;;;7.07;72.95;99271.09;1719365;83;21086;-44
2022/10/21 08:31:16;;;;;;;37.45;17.42;;;;;;;7.14;72.96;99269.92;1716481;83;21484;-42
2022/10/21 08:33:43;;;;;;;36.60;17.25;;;;;;;7.18;72.77;99258.88;1716623;83;21528;-44
2022/10/21 08:36:18;;;;;;;36.98;17.25;;;;;;;7.18;72.47;99258.41;1710485;82;20984;-43
2022/10/21 08:38:45;;;;;;;26.68;14.58;;;;;;;7.29;72.67;99252.30;1718402;82;21035;-42
2022/10/21 08:41:33;;;;;;;35.35;16.97;;;;;;;7.40;72.59;99258.34;1720570;83;21178;-38
2022/10/21 08:44:08;;;;;;;40.63;17.98;;;;;;;7.55;72.44;99258.17;1718757;83;21012;-42
2022/10/21 08:46:40;;;;;;;27.37;15.08;;;;;;;7.77;72.54;99256.77;1711666;82;21024;-46
2022/10/21 08:49:18;;;;;;;32.53;14.00;;;;;;;7.87;71.67;99252.80;1721745;82;21599;-44
2022/10/21 08:51:51;;;;;;;;;;;;;;;8.00;71.47;99246.55;1724136;83;21023;-44
2022/10/21 08:54:32;;;;;;;29.77;13.88;;;;;;;8.12;70.83;99247.77;1720241;83;20397;-46
2022/10/21 08:57:01;;;;;;;25.50;14.25;;;;;;;8.29;70.79;99243.52;1717191;83;21011;-43
2022/10/21 08:59:28;;;;;;;29.92;14.38;;;;;;;8.48;70.94;99244.84;1705773;82;21827;-41
2022/10/21 09:02:06;;;;;;;28.53;16.63;;;;;;;8.70;70.67;99234.20;1703202;82;21046;-46
2022/10/21 09:04:42;;;;;;;28.52;14.58;;;;;;;8.89;69.83;99234.14;1712833;83;21021;-50
2022/10/21 09:07:26;;;;;;;36.40;14.73;;;;;;;8.96;68.25;99232.91;1695252;82;21062;-49
2022/10/21 09:09:58;;;;;;;22.10;12.95;;;;;;;9.16;69.69;99230.60;1720695;82;20983;-45
2022/10/21 09:12:37;;;;;;;29.27;12.73;;;;;;;9.29;69.35;99230.35;1710137;83;21055;-51
2022/10/21 09:15:18;;;;;;;27.30;13.95;;;;;;;9.21;68.48;99222.87;1714314;83;21007;-44
2022/10/21 09:17:56;;;;;;;35.58;14.93;;;;;;;9.16;68.59;99228.81;1716666;82;20991;-45
2022/10/21 09:20:44;;;;;;;28.38;15.55;;;;;;;9.25;69.00;99222.27;1712745;81;21492;-48
2022/10/21 09:23:38;;;;;;;29.95;15.05;;;;;;;9.32;68.75;99224.95;1714113;83;21008;-46
2022/10/21 09:26:41;;;;;;;32.60;15.13;;;;;;;9.39;68.36;99218.94;1711349;83;21033;-46
2022/10/21 09:29:20;;;;;;;34.80;14.50;;;;;;;9.47;68.69;99208.87;1703376;81;21626;-45
2022/10/21 09:31:48;;;;;;;28.27;13.95;;;;;;;9.59;68.68;99209.55;1719275;81;21074;-45
2022/10/21 09:34:35;;;;;;;24.40;13.98;;;;;;;9.68;68.84;99209.98;1722205;83;21014;-44
2022/10/21 09:37:07;;;;;;;28.92;15.35;;;;;;;9.73;68.67;99210.59;1701847;83;20998;-43
2022/10/21 09:39:45;;;;;;;35.92;16.67;;;;;;;9.76;68.74;99203.88;1720131;82;20990;-47
2022/10/21 09:42:12;;;;;;;29.60;14.85;;;;;;;9.77;68.68;99204.27;1709555;83;21023;-47
2022/10/21 09:44:39;;;;;;;;;;;;;;;9.84;68.78;99201.70;1731233;82;21418;-49
2022/10/21 09:47:20;;;;;;;28.30;14.07;;;;;;;9.84;68.21;99195.58;1705258;83;20116;-47
2022/10/21 09:49:52;;;;;;;24.87;13.25;;;;;;;9.94;68.49;99197.62;1712993;82;20991;-45
2022/10/21 09:52:22;;;;;;;33.38;14.15;;;;;;;10.09;68.86;99187.22;1719158;83;20999;-45
2022/10/21 09:54:49;;;;;;;22.32;13.53;;;;;;;10.17;68.32;99186.34;1711975;83;20990;-48
2022/10/21 09:57:45;;;;;;;30.00;13.28;;;;;;;10.20;68.02;99176.95;1711753;82;21019;-49
2022/10/21 10:00:12;;;;;;;20.85;12.18;;;;;;;10.25;68.20;99172.30;1715695;83;21504;-46
2022/10/21 10:02:43;;;;;;;28.15;12.80;;;;;;;10.31;68.11;99164.09;1731942;81;21003;-45
2022/10/21 10:05:37;;;;;;;26.05;13.00;;;;;;;10.38;67.93;99163.28;1706579;82;20991;-51
2022/10/21 10:08:30;;;;;;;26.40;13.40;;;;;;;10.44;67.82;99158.14;1700427;81;21011;-43
2022/10/21 10:11:11;;;;;;;35.20;14.47;;;;;;;10.46;67.49;99161.53;1733856;81;21435;-48
2022/10/21 10:13:48;;;;;;;28.25;12.45;;;;;;;10.47;67.10;99158.81;1721208;81;21564;-51
2022/10/21 10:16:31;;;;;;;27.93;13.75;;;;;;;10.63;67.58;99164.05;1731073;80;21026;-50
2022/10/21 10:19:22;;;;;;;27.75;13.95;;;;;;;10.76;67.55;99163.71;1709503;82;21681;-52
2022/10/21 10:22:15;;;;;;;25.68;13.88;;;;;;;10.96;67.45;99161.70;1729310;81;21523;-45
2022/10/21 10:24:43;;;;;;;26.10;13.95;;;;;;;11.11;66.66;99151.61;1683942;82;20987;-42
2022/10/21 10:27:22;;;;;;;22.30;12.65;;;;;;;11.18;65.25;99140.70;1702186;83;21092;-44
2022/10/21 10:29:55;;;;;;;21.65;13.38;;;;;;;11.27;65.92;99137.51;1719249;82;21159;-46
2022/10/21 10:32:27;;;;;;;21.93;12.80;;;;;;;11.37;65.78;99137.78;1687989;83;21529;-45
2022/10/21 10:35:02;;;;;;;26.77;13.68;;;;;;;11.42;65.48;99137.04;1699516;83;21157;-45
2022/10/21 10:37:33;;;;;;;26.35;13.98;;;;;;;11.50;65.34;99139.58;1707510;83;21012;-51
2022/10/21 10:40:05;;;;;;;24.00;13.58;;;;;;;11.61;65.48;99142.88;1712966;82;21062;-47
2022/10/21 10:42:36;;;;;;;27.90;14.30;;;;;;;11.63;64.61;99134.88;1718424;83;21024;-49
2022/10/21 10:45:14;;;;;;;27.93;14.47;;;;;;;11.63;64.52;99131.77;1722188;83;21097;-50
2022/10/21 10:47:54;;;;;;;26.65;13.70;;;;;;;11.62;64.60;99133.17;1730851;82;21020;-47
2022/10/21 10:50:47;;;;;;;23.83;13.48;;;;;;;11.65;64.94;99129.05;1702323;82;21007;-53
2022/10/21 10:53:33;;;;;;;26.87;13.03;;;;;;;11.68;65.41;99127.55;1714542;82;21179;-50
2022/10/21 10:56:28;;;;;;;33.00;14.10;;;;;;;11.71;65.56;99122.06;1722316;82;21217;-44
2022/10/21 10:59:18;;;;;;;30.68;13.38;;;;;;;11.72;65.39;99125.09;1707185;81;21528;-48
2022/10/21 11:02:09;;;;;;;23.15;13.15;;;;;;;11.79;65.55;99122.89;1697559;83;20999;-48
2022/10/21 11:04:41;;;;;;;34.85;14.78;;;;;;;11.80;65.25;99125.91;1707878;83;21569;-46
2022/10/21 11:07:16;;;;;;;25.43;13.00;;;;;;;11.84;65.35;99117.73;1717999;83;20999;-52
2022/10/21 11:09:44;;;;;;;27.93;12.40;;;;;;;11.98;65.60;99114.72;1714445;83;21036;-49
2022/10/21 11:12:20;;;;;;;27.95;11.95;;;;;;;12.05;65.17;99114.22;1700474;83;21011;-44
2022/10/21 11:14:55;;;;;;;22.00;9.88;;;;;;;12.18;64.90;99106.36;1708158;82;20979;-44
2022/10/21 11:17:39;;;;;;;25.30;9.50;;;;;;;12.31;63.36;99102.93;1716779;82;21519;-49
2022/10/21 11:20:27;;;;;;;15.80;9.23;;;;;;;12.33;62.36;99099.72;1692196;83;21528;-50
2022/10/21 11:23:15;;;;;;;;;;;;;;;12.51;63.81;99095.86;1703214;82;21491;-44
2022/10/21 11:25:52;;;;;;;18.07;9.50;;;;;;;12.55;62.15;99089.91;1704321;82;20455;-47
2022/10/21 11:28:33;;;;;;;15.58;9.38;;;;;;;12.73;62.75;99086.52;1702208;83;20988;-45
2022/10/21 11:31:26;;;;;;;18.77;9.40;;;;;;;12.78;61.67;99077.82;1724127;82;21559;-46
2022/10/21 11:34:21;;;;;;;23.83;9.65;;;;;;;12.76;61.23;99074.45;1710798;83;20975;-49
2022/10/21 11:37:36;;;;;;;16.87;8.90;;;;;;;12.83;61.19;99064.68;1701643;81;21031;-47
2022/10/21 11:40:14;;;;;;;25.02;8.50;;;;;;;12.82;61.29;99055.09;1697670;83;21066;-43
2022/10/21 11:42:46;;;;;;;16.37;8.40;;;;;;;12.84;61.36;99044.41;1712796;81;21044;-46
2022/10/21 11:45:40;;;;;;;21.33;8.45;;;;;;;12.86;61.06;99038.09;1711293;83;21047;-49
2022/10/21 11:48:30;;;;;;;17.75;9.30;;;;;;;12.81;60.31;99042.00;1722213;82;20994;-49
2022/10/21 11:51:28;;;;;;;13.20;7.92;;;;;;;12.95;59.95;99044.54;1697679;82;20966;-47
2022/10/21 11:54:03;;;;;;;16.65;8.23;;;;;;;12.91;58.56;99033.80;1706724;83;21026;-47